TimeHST,TemperatureF,Dew PointF,Humidity,Sea Level PressureIn,VisibilityMPH,Wind Direction,Wind SpeedMPH,Gust SpeedMPH,PrecipitationIn,Events,Conditions,WindDirDegrees,DateUTC
12:53 AM,77.0,66.9,71,30.01,10.0,ENE,13.8,-,N/A,,Mostly Cloudy,70,2012-09-18 10:53:00
1:53 AM,75.9,66.9,74,30.00,10.0,East,11.5,-,N/A,,Overcast,80,2012-09-18 11:53:00
2:53 AM,75.9,66.9,74,29.99,10.0,ENE,11.5,-,N/A,,Overcast,70,2012-09-18 12:53:00
3:06 AM,75.2,66.2,73,29.99,10.0,ENE,12.7,-,N/A,,Overcast,70,2012-09-18 13:06:00
3:53 AM,75.9,66.0,71,29.99,10.0,ENE,12.7,-,N/A,,Overcast,70,2012-09-18 13:53:00
4:53 AM,75.9,66.0,71,29.99,10.0,ENE,11.5,-,N/A,,Overcast,60,2012-09-18 14:53:00
5:53 AM,75.9,64.9,69,30.00,10.0,NE,11.5,-,N/A,,Overcast,50,2012-09-18 15:53:00
6:53 AM,75.9,64.9,69,30.02,10.0,ENE,11.5,-,N/A,,Scattered Clouds,60,2012-09-18 16:53:00
7:53 AM,78.1,64.9,64,30.01,10.0,ENE,11.5,-,N/A,,Partly Cloudy,60,2012-09-18 17:53:00
8:53 AM,80.1,66.0,62,30.01,10.0,ENE,11.5,-,N/A,,Partly Cloudy,60,2012-09-18 18:53:00
9:53 AM,81.0,64.9,58,30.02,10.0,ENE,13.8,-,N/A,,Partly Cloudy,70,2012-09-18 19:53:00
10:53 AM,82.9,66.0,56,30.02,10.0,East,11.5,-,N/A,,Partly Cloudy,80,2012-09-18 20:53:00
11:53 AM,82.0,66.0,58,30.01,10.0,ENE,12.7,-,N/A,,Partly Cloudy,70,2012-09-18 21:53:00
12:53 PM,82.9,66.0,56,29.99,10.0,ENE,12.7,-,N/A,,Partly Cloudy,70,2012-09-18 22:53:00
1:53 PM,82.0,66.0,58,29.97,10.0,ENE,11.5,-,N/A,,Partly Cloudy,60,2012-09-18 23:53:00
2:53 PM,82.0,66.0,58,29.95,10.0,ENE,10.4,-,N/A,,Partly Cloudy,70,2012-09-19 00:53:00
3:53 PM,81.0,66.0,60,29.95,10.0,ENE,10.4,-,N/A,,Partly Cloudy,60,2012-09-19 01:53:00
4:53 PM,80.1,66.0,62,29.95,10.0,NE,9.2,-,N/A,,Partly Cloudy,40,2012-09-19 02:53:00
5:53 PM,78.1,66.0,66,29.96,10.0,NE,11.5,-,N/A,,Scattered Clouds,50,2012-09-19 03:53:00
6:53 PM,77.0,66.0,69,29.98,10.0,NE,11.5,-,N/A,,Scattered Clouds,40,2012-09-19 04:53:00
7:53 PM,77.0,66.9,71,30.00,10.0,ENE,11.5,-,N/A,,Scattered Clouds,60,2012-09-19 05:53:00
8:53 PM,75.9,66.9,74,30.01,10.0,NE,11.5,-,N/A,,Scattered Clouds,40,2012-09-19 06:53:00
9:53 PM,75.9,66.0,71,30.03,10.0,ENE,11.5,-,N/A,,Clear,70,2012-09-19 07:53:00
10:53 PM,75.9,66.9,74,30.03,10.0,ENE,10.4,-,N/A,,Partly Cloudy,60,2012-09-19 08:53:00
11:53 PM,75.9,66.9,74,30.02,10.0,ENE,12.7,-,N/A,,Scattered Clouds,70,2012-09-19 09:53:00